createdAt,value
2019-05-22T00:00:39.346Z,0.40
2019-05-22T00:03:15.671Z,0.50
2019-05-22T00:05:46.872Z,0.40
2019-05-22T00:08:17.373Z,0.70
2019-05-22T00:10:47.560Z,0.60
2019-05-22T00:13:19.820Z,0.60
2019-05-22T00:15:50.438Z,0.57
2019-05-22T00:18:19.907Z,0.50
2019-05-22T00:20:49.539Z,0.60
2019-05-22T00:23:19.676Z,0.60
2019-05-22T00:25:48.660Z,0.50
2019-05-22T00:28:18.013Z,0.53
2019-05-22T00:30:49.475Z,0.60
2019-05-22T00:33:19.568Z,0.50
2019-05-22T00:35:50.320Z,0.50
2019-05-22T00:38:20.957Z,0.70
2019-05-22T00:40:53.335Z,0.55
2019-05-22T00:43:31.025Z,0.60
2019-05-22T00:46:02.944Z,0.57
2019-05-22T00:48:32.486Z,0.60
2019-05-22T00:51:11.821Z,0.60
2019-05-22T00:53:48.908Z,0.70
2019-05-22T00:56:30.082Z,0.72
2019-05-22T00:59:18.836Z,0.50
2019-05-22T01:01:55.443Z,0.47
2019-05-22T01:04:26.037Z,0.40
2019-05-22T01:06:55.661Z,0.60
2019-05-22T01:09:26.405Z,0.72
2019-05-22T01:11:57.314Z,0.55
2019-05-22T01:14:41.879Z,0.42
2019-05-22T01:16:59.702Z,0.50
2019-05-22T01:19:30.683Z,0.30
2019-05-22T01:22:02.203Z,0.47
2019-05-22T01:24:31.589Z,0.37
2019-05-22T01:27:00.587Z,0.40
2019-05-22T01:29:30.223Z,0.60
2019-05-22T01:32:00.777Z,0.40
2019-05-22T01:34:31.875Z,0.50
2019-05-22T01:37:05.139Z,0.62
2019-05-22T01:39:47.429Z,0.70
2019-05-22T01:42:19.225Z,0.40
2019-05-22T01:45:01.720Z,0.50
2019-05-22T01:48:00.333Z,0.50
2019-05-22T01:50:49.071Z,0.60
2019-05-22T01:53:20.836Z,0.40
2019-05-22T01:55:52.491Z,0.40
2019-05-22T01:58:21.882Z,0.40
2019-05-22T02:00:53.903Z,0.42
2019-05-22T02:03:23.673Z,0.50
2019-05-22T02:05:52.676Z,0.42
2019-05-22T02:08:24.157Z,0.55
2019-05-22T02:10:54.676Z,0.40
2019-05-22T02:13:33.453Z,0.50
2019-05-22T02:16:02.786Z,0.40
2019-05-22T02:18:34.916Z,0.50
2019-05-22T02:21:05.335Z,0.55
2019-05-22T02:23:36.587Z,0.42
2019-05-22T02:26:07.349Z,0.40
2019-05-22T02:28:37.175Z,0.55
2019-05-22T02:31:09.078Z,0.50
2019-05-22T02:33:56.731Z,0.53
2019-05-22T02:36:26.531Z,0.47
2019-05-22T02:38:55.872Z,0.50
2019-05-22T02:41:26.263Z,0.50
2019-05-22T02:43:57.700Z,0.50
2019-05-22T02:46:27.339Z,0.45
2019-05-22T02:48:57.747Z,0.50
2019-05-22T02:51:28.042Z,0.40
2019-05-22T02:53:59.929Z,0.60
2019-05-22T02:56:29.387Z,0.45
2019-05-22T02:58:59.135Z,0.45
2019-05-22T03:01:28.203Z,0.50
2019-05-22T03:03:57.436Z,0.50
2019-05-22T03:06:28.285Z,0.30
2019-05-22T03:09:01.129Z,0.40
2019-05-22T03:11:40.183Z,0.40
2019-05-22T03:14:11.531Z,0.42
2019-05-22T03:16:52.232Z,0.40
2019-05-22T03:19:26.745Z,0.50
2019-05-22T03:21:57.865Z,0.50
2019-05-22T03:24:27.168Z,0.42
2019-05-22T03:26:57.422Z,0.40
2019-05-22T03:29:53.939Z,0.42
2019-05-22T03:32:23.940Z,0.50
2019-05-22T03:34:54.263Z,0.55
2019-05-22T03:37:25.496Z,0.50
2019-05-22T03:39:54.905Z,0.40
2019-05-22T03:42:25.847Z,0.30
2019-05-22T03:44:56.168Z,0.40
2019-05-22T03:47:26.411Z,0.50
2019-05-22T03:49:56.920Z,0.80
2019-05-22T03:52:27.411Z,0.40
2019-05-22T03:54:56.368Z,0.40
2019-05-22T03:57:25.758Z,0.30
2019-05-22T03:59:55.051Z,1.40
2019-05-22T04:02:25.814Z,0.45
2019-05-22T04:04:55.212Z,0.40
2019-05-22T04:07:26.587Z,0.50
2019-05-22T04:09:57.983Z,0.23
2019-05-22T04:12:27.899Z,0.40
2019-05-22T04:14:57.485Z,0.40
2019-05-22T04:17:27.121Z,0.30
2019-05-22T04:19:56.300Z,0.35
2019-05-22T04:22:25.710Z,0.30
2019-05-22T04:24:55.431Z,0.40
2019-05-22T04:27:24.717Z,0.30
2019-05-22T04:29:55.188Z,0.20
2019-05-22T04:32:25.963Z,0.20
2019-05-22T04:34:55.424Z,0.30
2019-05-22T04:37:25.485Z,0.20
2019-05-22T04:39:57.345Z,0.30
2019-05-22T04:42:28.853Z,0.20
2019-05-22T04:45:13.717Z,0.28
2019-05-22T04:47:45.776Z,0.25
2019-05-22T04:50:16.038Z,0.30
2019-05-22T04:52:46.362Z,0.25
2019-05-22T04:55:15.283Z,0.20
2019-05-22T04:57:45.547Z,0.33
2019-05-22T05:00:17.027Z,0.20
2019-05-22T05:02:45.946Z,0.25
2019-05-22T05:05:16.661Z,0.30
2019-05-22T05:07:48.722Z,0.33
2019-05-22T05:10:18.535Z,0.30
2019-05-22T05:12:48.293Z,0.15
2019-05-22T05:15:18.352Z,0.30
2019-05-22T05:17:47.747Z,0.20
2019-05-22T05:20:22.579Z,0.28
2019-05-22T05:22:48.934Z,0.20
2019-05-22T05:25:20.340Z,0.20
2019-05-22T05:27:50.080Z,0.30
2019-05-22T05:30:21.763Z,0.40
2019-05-22T05:32:52.012Z,0.30
2019-05-22T05:35:21.777Z,0.10
2019-05-22T05:37:52.211Z,0.20
2019-05-22T05:40:40.349Z,0.10
2019-05-22T05:43:14.761Z,0.20
2019-05-22T05:45:46.488Z,0.30
2019-05-22T05:48:22.980Z,0.20
2019-05-22T05:51:10.408Z,0.30
2019-05-22T05:54:10.862Z,0.20
2019-05-22T05:56:41.670Z,0.20
2019-05-22T05:59:12.562Z,0.08
2019-05-22T06:01:46.416Z,0.17
2019-05-22T06:04:33.389Z,0.20
2019-05-22T06:07:00.678Z,0.20
2019-05-22T06:09:29.939Z,0.10
2019-05-22T06:12:05.211Z,0.10
2019-05-22T06:14:35.859Z,0.10
2019-05-22T06:17:24.918Z,0.17
2019-05-22T06:19:56.774Z,0.20
2019-05-22T06:22:26.481Z,0.20
2019-05-22T06:25:05.050Z,0.13
2019-05-22T06:27:43.920Z,0.10
2019-05-22T06:30:22.089Z,0.10
2019-05-22T06:33:13.646Z,0.10
2019-05-22T06:35:44.553Z,0.10
2019-05-22T06:38:25.563Z,0.05
2019-05-22T06:40:54.865Z,0.10
2019-05-22T06:43:28.065Z,0.15
2019-05-22T06:45:57.683Z,0.20
2019-05-22T06:48:27.098Z,0.20
2019-05-22T06:50:57.395Z,0.00
2019-05-22T06:53:26.587Z,0.10
2019-05-22T06:55:55.541Z,0.10
2019-05-22T06:58:24.624Z,0.10
2019-05-22T07:00:53.638Z,0.37
2019-05-22T07:03:23.362Z,0.20
2019-05-22T07:05:53.491Z,0.20
2019-05-22T07:08:41.834Z,0.10
2019-05-22T07:11:11.575Z,0.30
2019-05-22T07:13:41.664Z,0.10
2019-05-22T07:16:11.625Z,0.15
2019-05-22T07:18:41.901Z,0.20
2019-05-22T07:21:10.998Z,0.10
2019-05-22T07:23:40.094Z,0.10
2019-05-22T07:26:11.614Z,0.10
2019-05-22T07:28:41.562Z,0.15
2019-05-22T07:31:10.856Z,0.17
2019-05-22T07:33:40.555Z,0.15
2019-05-22T07:36:15.322Z,0.10
2019-05-22T07:38:40.820Z,0.10
2019-05-22T07:41:10.604Z,0.17
2019-05-22T07:43:41.612Z,0.10
2019-05-22T07:46:10.313Z,0.10
2019-05-22T07:48:39.322Z,0.10
2019-05-22T07:51:10.471Z,0.10
2019-05-22T07:53:40.900Z,0.10
2019-05-22T07:56:11.856Z,0.10
2019-05-22T07:58:41.561Z,0.20
2019-05-22T08:01:11.377Z,0.03
2019-05-22T08:03:44.036Z,0.10
2019-05-22T08:06:15.033Z,0.10
2019-05-22T08:08:44.888Z,0.10
2019-05-22T08:11:14.809Z,0.28
2019-05-22T08:13:45.635Z,0.00
2019-05-22T08:16:15.244Z,0.10
2019-05-22T08:18:44.410Z,0.20
2019-05-22T08:21:14.143Z,0.10
2019-05-22T08:23:43.860Z,0.10
2019-05-22T08:26:13.986Z,0.10
2019-05-22T08:28:44.042Z,0.17
2019-05-22T08:31:13.675Z,0.10
2019-05-22T08:33:43.223Z,0.10
2019-05-22T08:36:12.816Z,0.10
2019-05-22T08:38:44.085Z,0.10
2019-05-22T08:41:15.503Z,0.00
2019-05-22T08:44:11.400Z,0.10
2019-05-22T08:46:17.080Z,0.10
2019-05-22T08:48:48.960Z,0.10
2019-05-22T08:51:17.618Z,0.10
2019-05-22T08:53:48.772Z,0.10
2019-05-22T08:56:18.788Z,0.10
2019-05-22T08:58:48.690Z,0.20
2019-05-22T09:01:17.801Z,0.13
2019-05-22T09:03:47.299Z,0.00
2019-05-22T09:06:16.595Z,0.00
2019-05-22T09:08:45.996Z,0.10
2019-05-22T09:11:15.203Z,0.10
2019-05-22T09:13:44.303Z,0.10
2019-05-22T09:16:14.698Z,0.10
2019-05-22T09:18:44.735Z,0.10
2019-05-22T09:21:14.498Z,0.10
2019-05-22T09:23:44.591Z,0.08
2019-05-22T09:26:13.858Z,0.10
2019-05-22T09:28:42.798Z,0.10
2019-05-22T09:31:11.853Z,0.20
2019-05-22T09:33:52.534Z,0.20
2019-05-22T09:36:22.935Z,0.20
2019-05-22T09:38:53.265Z,0.25
2019-05-22T09:41:22.763Z,0.20
2019-05-22T09:43:52.064Z,0.10
2019-05-22T09:46:21.700Z,0.20
2019-05-22T09:48:50.880Z,0.10
2019-05-22T09:51:20.516Z,0.20
2019-05-22T09:53:50.589Z,0.10
2019-05-22T09:56:19.793Z,0.10
2019-05-22T09:58:48.815Z,0.10
2019-05-22T10:01:18.351Z,0.10
2019-05-22T10:03:48.745Z,0.20
2019-05-22T10:06:21.375Z,0.17
2019-05-22T10:08:48.952Z,0.20
2019-05-22T10:11:18.264Z,0.20
2019-05-22T10:13:47.388Z,0.30
2019-05-22T10:16:16.442Z,0.37
2019-05-22T10:18:45.943Z,0.30
2019-05-22T10:21:15.246Z,0.35
2019-05-22T10:23:44.755Z,0.42
2019-05-22T10:26:13.857Z,0.50
2019-05-22T10:28:43.556Z,0.33
2019-05-22T10:31:15.209Z,0.30
2019-05-22T10:33:43.415Z,0.40
2019-05-22T10:36:12.326Z,0.55
2019-05-22T10:38:41.536Z,0.40
2019-05-22T10:41:11.869Z,0.50
2019-05-22T10:43:41.299Z,0.30
2019-05-22T10:46:10.494Z,0.40
2019-05-22T10:48:40.548Z,0.40
2019-05-22T10:51:10.097Z,0.25
2019-05-22T10:53:40.005Z,0.40
2019-05-22T12:25:41.165Z,1.80
2019-05-22T12:31:30.274Z,1.80
2019-05-22T12:33:59.768Z,1.47
2019-05-22T12:36:29.493Z,2.65
2019-05-22T12:38:59.780Z,1.45
2019-05-22T12:41:29.806Z,1.20
2019-05-22T12:43:59.836Z,1.15
2019-05-22T12:46:30.489Z,1.27
2019-05-22T13:50:44.228Z,0.47
2019-05-22T13:53:15.821Z,0.78
2019-05-22T13:55:46.591Z,0.60
2019-05-22T13:58:16.355Z,0.50
2019-05-22T14:00:45.363Z,0.68
2019-05-22T14:03:14.971Z,0.72
2019-05-22T14:05:44.970Z,0.60
2019-05-22T14:08:14.182Z,0.50
2019-05-22T14:10:44.931Z,0.80
2019-05-22T14:14:35.294Z,1.02
2019-05-22T14:17:47.109Z,0.60
2019-05-22T14:20:17.639Z,0.80
2019-05-22T14:40:22.274Z,0.78
2019-05-22T14:42:51.482Z,0.70
2019-05-22T14:45:20.475Z,0.60
2019-05-22T14:47:49.471Z,0.80
2019-05-22T14:50:18.651Z,0.75
2019-05-22T14:52:47.752Z,0.80
2019-05-22T14:55:18.319Z,0.72
2019-05-22T14:57:48.277Z,0.70
2019-05-22T15:00:20.030Z,0.70
2019-05-22T15:02:55.408Z,1.12
2019-05-22T15:05:21.512Z,0.70
2019-05-22T15:07:50.615Z,0.93
2019-05-22T15:10:21.117Z,0.78
2019-05-22T15:12:50.317Z,0.62
2019-05-22T15:15:21.759Z,0.78
2019-05-22T15:17:51.397Z,0.80
2019-05-22T15:20:25.120Z,0.90
2019-05-22T15:22:56.226Z,0.90
2019-05-22T15:25:25.435Z,0.90
2019-05-22T15:27:54.408Z,0.85
2019-05-22T15:30:23.778Z,0.62
2019-05-22T15:32:53.110Z,0.70
2019-05-22T15:35:23.290Z,0.70
2019-05-22T15:37:55.622Z,0.80
2019-05-22T15:40:26.027Z,0.80
2019-05-22T15:42:55.482Z,1.17
2019-05-22T15:45:27.592Z,0.60
2019-05-22T15:48:01.634Z,0.53
2019-05-22T15:50:34.202Z,0.88
2019-05-22T15:53:09.374Z,0.70
2019-05-22T15:55:39.438Z,0.90
2019-05-22T15:58:09.034Z,0.75
2019-05-22T16:00:41.229Z,0.80
2019-05-22T16:03:15.444Z,0.85
2019-05-22T16:05:45.846Z,0.75
2019-05-22T16:08:16.138Z,0.60
2019-05-22T16:10:51.749Z,0.72
2019-05-22T16:13:23.100Z,0.60
2019-05-22T16:15:55.033Z,0.80
2019-05-22T16:18:29.558Z,0.50
2019-05-22T16:21:02.665Z,0.88
2019-05-22T16:23:34.296Z,0.70
2019-05-22T16:26:06.079Z,1.00
2019-05-22T16:28:37.094Z,1.00
2019-05-22T16:31:10.100Z,0.88
2019-05-22T16:33:41.247Z,0.78
2019-05-22T16:36:10.997Z,0.55
2019-05-22T16:38:40.208Z,0.60
2019-05-22T16:41:10.840Z,0.70
2019-05-22T16:43:49.580Z,0.50
2019-05-22T16:46:17.317Z,0.93
2019-05-22T16:48:49.220Z,0.50
2019-05-22T16:51:20.059Z,0.68
2019-05-22T16:53:54.072Z,0.62
2019-05-22T16:56:26.648Z,0.75
2019-05-22T16:58:56.160Z,0.53
2019-05-22T17:01:27.341Z,0.78
2019-05-22T17:03:59.176Z,0.60
2019-05-22T17:06:28.666Z,0.70
2019-05-22T17:08:59.290Z,0.40
2019-05-22T17:11:29.199Z,0.75
2019-05-22T17:14:01.576Z,0.40
2019-05-22T17:16:35.119Z,0.53
2019-05-22T17:19:23.734Z,0.40
2019-05-22T17:21:36.568Z,0.65
2019-05-22T17:24:08.476Z,0.60
2019-05-22T17:26:37.882Z,0.50
2019-05-22T17:29:08.123Z,0.57
2019-05-22T17:31:37.901Z,0.70
2019-05-22T17:34:09.005Z,0.50
2019-05-22T17:36:38.898Z,0.42
2019-05-22T17:39:10.336Z,0.50
2019-05-22T17:41:41.686Z,0.50
2019-05-22T17:44:12.812Z,0.42
2019-05-22T17:46:46.323Z,0.53
2019-05-22T17:49:15.931Z,0.50
2019-05-22T17:51:46.051Z,0.37
2019-05-22T17:54:15.761Z,0.42
2019-05-22T17:56:45.728Z,0.40
2019-05-22T17:59:15.794Z,0.50
2019-05-22T18:01:45.572Z,0.40
2019-05-22T18:04:14.781Z,0.37
2019-05-22T18:06:44.113Z,0.20
2019-05-22T18:09:13.405Z,0.40
2019-05-22T18:11:42.676Z,0.30
2019-05-22T18:14:13.422Z,0.23
2019-05-22T18:16:43.788Z,0.20
2019-05-22T18:19:13.323Z,0.30
2019-05-22T18:21:43.177Z,0.30
2019-05-22T18:24:12.490Z,0.33
2019-05-22T18:26:41.552Z,0.23
2019-05-22T18:29:10.566Z,0.20
2019-05-22T18:31:39.640Z,0.13
2019-05-22T18:34:09.675Z,0.20
2019-05-22T18:36:38.499Z,0.20
2019-05-22T18:39:09.284Z,0.37
2019-05-22T18:41:38.568Z,0.30
2019-05-22T18:44:08.350Z,0.30
2019-05-22T18:46:37.887Z,0.30
2019-05-22T18:49:06.785Z,0.20
2019-05-22T18:51:35.874Z,0.25
2019-05-22T18:54:05.309Z,0.20
2019-05-22T18:56:35.916Z,0.23
2019-05-22T18:59:04.899Z,0.30
2019-05-22T19:01:34.200Z,0.25
2019-05-22T19:04:03.725Z,0.23
2019-05-22T19:06:32.822Z,0.40
2019-05-22T19:09:01.918Z,0.30
2019-05-22T19:11:31.219Z,0.50
2019-05-22T19:14:00.394Z,0.25
2019-05-22T19:16:33.049Z,0.30
2019-05-22T19:19:02.099Z,0.17
2019-05-22T19:21:31.210Z,0.30
2019-05-22T19:24:00.012Z,0.20
2019-05-22T19:26:29.506Z,0.20
2019-05-22T19:28:58.442Z,0.30
2019-05-22T19:31:27.749Z,0.20
2019-05-22T19:33:56.728Z,0.25
2019-05-22T19:36:25.696Z,0.30
2019-05-22T19:38:54.748Z,0.28
2019-05-22T19:41:24.225Z,0.23
2019-05-22T19:43:53.337Z,0.20
2019-05-22T19:46:23.745Z,0.10
2019-05-22T19:48:52.609Z,0.37
2019-05-22T19:51:21.586Z,0.13
2019-05-22T19:53:51.139Z,0.30
2019-05-22T19:56:23.644Z,0.30
2019-05-22T19:58:51.284Z,0.30
2019-05-22T20:01:20.649Z,0.30
2019-05-22T20:03:50.177Z,0.20
2019-05-22T20:06:20.723Z,0.30
2019-05-22T20:08:50.156Z,0.30
2019-05-22T20:11:19.269Z,0.30
2019-05-22T20:13:48.235Z,0.30
2019-05-22T20:16:17.134Z,0.40
2019-05-22T20:18:46.070Z,0.30
2019-05-22T20:21:15.451Z,0.40
2019-05-22T20:23:45.526Z,0.50
2019-05-22T20:26:14.773Z,0.45
2019-05-22T20:28:43.956Z,0.40
2019-05-22T20:31:13.178Z,0.30
2019-05-22T20:33:42.112Z,0.50
2019-05-22T20:36:11.408Z,0.40
2019-05-22T20:38:40.487Z,0.40
2019-05-22T20:41:10.037Z,0.30
2019-05-22T20:43:40.415Z,0.37
2019-05-22T20:46:11.305Z,0.60
2019-05-22T20:48:41.785Z,0.60
2019-05-22T20:51:12.508Z,0.80
2019-05-22T20:53:53.670Z,0.70
2019-05-22T20:56:14.310Z,0.50
2019-05-22T20:58:43.462Z,0.53
2019-05-22T21:01:13.938Z,0.70
2019-05-22T21:03:44.015Z,0.53
2019-05-22T21:06:15.689Z,0.60
2019-05-22T21:08:46.670Z,0.47
2019-05-22T21:11:18.522Z,0.65
2019-05-22T21:13:47.547Z,0.68
2019-05-22T21:16:17.488Z,0.78
2019-05-22T21:18:48.668Z,0.70
2019-05-22T21:21:18.361Z,0.70
2019-05-22T21:23:47.659Z,0.50
2019-05-22T21:26:18.490Z,0.53
2019-05-22T21:28:48.837Z,0.72
2019-05-22T21:31:18.276Z,0.40
2019-05-22T21:33:47.890Z,0.55
2019-05-22T21:36:18.325Z,0.47
2019-05-22T21:38:47.416Z,0.50
2019-05-22T21:41:18.169Z,0.40
2019-05-22T21:43:47.241Z,0.33
2019-05-22T21:46:16.752Z,1.02
2019-05-22T21:48:47.453Z,0.45
2019-05-22T21:51:16.796Z,0.40
2019-05-22T21:53:46.227Z,0.45
2019-05-22T21:56:15.538Z,0.53
2019-05-22T21:58:44.754Z,0.40
2019-05-22T22:01:15.412Z,0.30
2019-05-22T22:03:46.861Z,0.55
2019-05-22T22:06:16.687Z,0.30
2019-05-22T22:08:45.553Z,0.50
2019-05-22T22:11:14.538Z,0.47
2019-05-22T22:13:44.033Z,0.40
2019-05-22T22:16:12.921Z,0.53
2019-05-22T22:18:42.029Z,0.50
2019-05-22T22:21:13.297Z,0.57
2019-05-22T22:23:44.613Z,0.72
2019-05-22T22:26:25.288Z,0.70
2019-05-22T22:28:44.660Z,0.50
2019-05-22T22:31:15.207Z,0.50
2019-05-22T22:33:50.157Z,0.47
2019-05-22T22:36:20.970Z,0.45
2019-05-22T22:38:51.475Z,0.60
2019-05-22T22:41:21.518Z,0.70
2019-05-22T22:43:52.149Z,0.62
2019-05-22T22:46:40.204Z,0.40
2019-05-22T22:49:14.003Z,0.40
2019-05-22T22:51:42.897Z,0.50
2019-05-22T22:54:13.103Z,0.62
2019-05-22T22:56:43.334Z,0.35
2019-05-22T22:59:12.747Z,0.30
2019-05-22T23:01:44.514Z,0.45
2019-05-22T23:04:14.048Z,0.62
2019-05-22T23:06:43.737Z,0.40
2019-05-22T23:09:13.037Z,0.50
2019-05-22T23:11:43.564Z,0.40
2019-05-22T23:14:13.063Z,0.47
2019-05-22T23:16:42.208Z,0.37
2019-05-22T23:19:15.857Z,0.37
2019-05-22T23:21:45.137Z,0.30
2019-05-22T23:24:14.978Z,0.33
2019-05-22T23:26:45.172Z,0.30
2019-05-22T23:29:14.552Z,0.30
2019-05-22T23:31:44.359Z,0.30
2019-05-22T23:34:13.866Z,0.30
2019-05-22T23:36:44.620Z,0.30
2019-05-22T23:39:15.456Z,0.30
2019-05-22T23:41:46.186Z,0.23
2019-05-22T23:44:18.368Z,0.35
2019-05-22T23:46:47.966Z,0.30
2019-05-22T23:49:16.994Z,0.20
2019-05-22T23:51:46.470Z,0.30
2019-05-22T23:54:17.312Z,0.20
2019-05-22T23:56:47.211Z,0.30
2019-05-22T23:59:17.699Z,0.20
